Time;durP1;ratioP1;P1;durP2;ratioP2;P2;SDS_P1;SDS_P2;PMS_P1;PMS_P2;Temp;Humidity;BMP_temperature;BMP_pressure;BME280_temperature;BME280_humidity;BME280_pressure;Samples;Min_cycle;Max_cycle;Signal;HPM_P1;HPM_P2
2023/07/13 00:01:51;;;;;;;10.60;2.83;;;;;;;;;;5033174;28;20192;-90
2023/07/13 00:04:18;;;;;;;6.87;2.60;;;;;;;;;;5035813;28;20207;-89
2023/07/13 00:06:45;;;;;;;7.47;2.67;;;;;;;;;;5053163;28;20205;-89
2023/07/13 00:09:13;;;;;;;13.20;2.80;;;;;;;;;;5052007;28;20223;-90
2023/07/13 00:11:39;;;;;;;9.23;2.90;;;;;;;;;;5051361;28;20207;-90
2023/07/13 00:14:06;;;;;;;7.97;2.90;;;;;;;;;;5053153;28;20275;-90
2023/07/13 00:16:32;;;;;;;10.40;3.13;;;;;;;;;;5052971;28;20230;-89
2023/07/13 00:19:00;;;;;;;8.10;2.60;;;;;;;;;;5041987;28;20188;-92
2023/07/13 00:21:26;;;;;;;10.37;2.80;;;;;;;;;;5051209;28;20187;-91
2023/07/13 00:23:52;;;;;;;6.63;2.60;;;;;;;;;;5052718;28;20326;-90
2023/07/13 00:26:18;;;;;;;7.70;3.00;;;;;;;;;;5040468;28;20191;-90
2023/07/13 00:28:44;;;;;;;5.77;2.53;;;;;;;;;;5050929;28;20240;-89
2023/07/13 00:31:14;;;;;;;5.70;2.60;;;;;;;;;;5051998;28;20299;-91
2023/07/13 00:33:40;;;;;;;8.70;2.80;;;;;;;;;;5052305;28;20187;-90
2023/07/13 00:36:07;;;;;;;8.00;2.63;;;;;;;;;;5052721;28;20211;-92
2023/07/13 00:38:35;;;;;;;8.40;2.57;;;;;;;;;;5051068;28;20184;-91
2023/07/13 00:41:03;;;;;;;12.47;3.03;;;;;;;;;;5052747;28;20180;-90
2023/07/13 00:43:30;;;;;;;8.13;2.70;;;;;;;;;;5052463;28;20267;-89
2023/07/13 00:45:59;;;;;;;8.20;2.57;;;;;;;;;;5051907;28;20183;-91
2023/07/13 00:48:30;;;;;;;6.23;2.73;;;;;;;;;;5054004;28;20176;-91
2023/07/13 00:50:58;;;;;;;11.43;2.77;;;;;;;;;;5057037;28;20211;-90
2023/07/13 00:53:27;;;;;;;6.33;2.33;;;;;;;;;;5054957;28;20211;-90
2023/07/13 00:55:54;;;;;;;8.20;2.50;;;;;;;;;;5052611;28;20184;-91
2023/07/13 00:58:20;;;;;;;10.03;2.33;;;;;;;;;;5054270;28;20203;-90
2023/07/13 01:00:47;;;;;;;5.30;2.53;;;;;;;;;;5034182;28;20185;-90
2023/07/13 01:03:13;;;;;;;10.47;2.90;;;;;;;;;;5051327;28;20195;-89
2023/07/13 01:05:39;;;;;;;8.13;2.67;;;;;;;;;;5054438;28;20219;-92
2023/07/13 01:08:05;;;;;;;8.43;2.60;;;;;;;;;;5051853;28;20195;-90
2023/07/13 01:10:38;;;;;;;6.93;2.30;;;;;;;;;;5051427;28;20195;-91
2023/07/13 01:13:05;;;;;;;7.43;2.50;;;;;;;;;;5053189;28;20207;-90
2023/07/13 01:15:43;;;;;;;8.93;2.60;;;;;;;;;;5053110;28;20172;-90
2023/07/13 01:18:11;;;;;;;7.07;2.50;;;;;;;;;;5052349;28;20179;-90
2023/07/13 01:20:38;;;;;;;7.57;2.70;;;;;;;;;;5051728;28;20179;-90
2023/07/13 01:23:10;;;;;;;7.63;2.70;;;;;;;;;;5051359;28;20195;-91
2023/07/13 01:25:36;;;;;;;6.43;2.17;;;;;;;;;;5053057;28;20184;-90
2023/07/13 01:28:12;;;;;;;7.00;2.57;;;;;;;;;;5051739;28;20303;-91
2023/07/13 01:30:39;;;;;;;7.97;2.50;;;;;;;;;;5048870;28;20179;-91
2023/07/13 01:33:06;;;;;;;8.20;2.17;;;;;;;;;;5050924;28;20231;-92
2023/07/13 01:35:33;;;;;;;9.17;2.50;;;;;;;;;;5051371;28;20321;-90
2023/07/13 01:38:01;;;;;;;6.33;2.30;;;;;;;;;;5050914;28;20184;-89
2023/07/13 01:40:27;;;;;;;6.87;2.50;;;;;;;;;;5052246;28;20207;-90
2023/07/13 01:42:53;;;;;;;5.87;2.63;;;;;;;;;;5051220;28;20204;-90
2023/07/13 01:45:19;;;;;;;5.63;2.60;;;;;;;;;;5051693;28;20200;-91
2023/07/13 01:47:45;;;;;;;7.93;2.50;;;;;;;;;;5052032;28;20180;-91
2023/07/13 01:50:14;;;;;;;6.87;2.80;;;;;;;;;;5051172;28;20226;-91
2023/07/13 01:52:40;;;;;;;8.00;2.83;;;;;;;;;;5051378;28;20212;-90
2023/07/13 01:55:06;;;;;;;8.17;2.80;;;;;;;;;;5039511;28;20195;-90
2023/07/13 01:57:35;;;;;;;9.87;2.80;;;;;;;;;;5055375;28;20187;-90
2023/07/13 02:00:05;;;;;;;9.70;3.10;;;;;;;;;;5038512;28;20195;-90
2023/07/13 02:02:34;;;;;;;10.10;3.10;;;;;;;;;;5055056;28;20214;-91
2023/07/13 02:05:00;;;;;;;6.80;2.90;;;;;;;;;;5055113;28;20253;-89
2023/07/13 02:07:26;;;;;;;5.93;2.90;;;;;;;;;;5047502;28;20279;-89
2023/07/13 02:09:52;;;;;;;8.30;3.43;;;;;;;;;;5035908;28;20196;-90
2023/07/13 02:12:18;;;;;;;8.80;3.20;;;;;;;;;;5043245;28;20219;-90
2023/07/13 02:14:44;;;;;;;9.70;2.90;;;;;;;;;;5055915;28;20180;-90
2023/07/13 02:17:10;;;;;;;9.93;3.23;;;;;;;;;;5054916;28;20202;-92
2023/07/13 02:19:36;;;;;;;6.67;3.07;;;;;;;;;;5035983;28;20188;-90
2023/07/13 02:22:03;;;;;;;10.40;3.10;;;;;;;;;;5047624;28;20192;-91
2023/07/13 02:24:29;;;;;;;8.60;3.63;;;;;;;;;;5052547;28;20190;-91
2023/07/13 02:26:58;;;;;;;7.53;3.23;;;;;;;;;;5055058;28;20216;-91
2023/07/13 02:29:27;;;;;;;11.73;3.67;;;;;;;;;;5054956;28;20187;-91
2023/07/13 02:31:53;;;;;;;12.30;3.83;;;;;;;;;;5053564;28;20216;-92
2023/07/13 02:34:19;;;;;;;9.30;3.87;;;;;;;;;;5055427;28;20188;-90
2023/07/13 02:36:47;;;;;;;9.90;3.53;;;;;;;;;;5038245;28;20218;-90
2023/07/13 02:39:14;;;;;;;11.50;3.60;;;;;;;;;;5055605;28;20187;-93
2023/07/13 02:41:40;;;;;;;8.67;3.53;;;;;;;;;;5054761;28;20222;-93
2023/07/13 02:44:08;;;;;;;8.77;3.90;;;;;;;;;;5055217;28;20263;-90
2023/07/13 02:46:35;;;;;;;10.77;3.87;;;;;;;;;;5055105;28;20204;-91
2023/07/13 02:49:01;;;;;;;12.80;3.87;;;;;;;;;;5051461;28;20199;-92
2023/07/13 02:51:27;;;;;;;9.43;4.37;;;;;;;;;;5050469;28;20261;-92
2023/07/13 02:53:53;;;;;;;13.10;3.97;;;;;;;;;;5055274;28;20211;-91
2023/07/13 02:56:22;;;;;;;10.23;4.20;;;;;;;;;;5055538;28;20197;-92
2023/07/13 02:58:48;;;;;;;8.43;3.90;;;;;;;;;;5054861;28;20184;-89
2023/07/13 03:01:18;;;;;;;14.10;4.57;;;;;;;;;;5054528;28;20283;-91
2023/07/13 03:03:45;;;;;;;15.83;5.17;;;;;;;;;;5034911;28;20240;-91
2023/07/13 03:06:11;;;;;;;9.57;4.20;;;;;;;;;;5037424;28;20215;-92
2023/07/13 03:08:38;;;;;;;10.77;4.30;;;;;;;;;;5034775;28;20189;-92
2023/07/13 03:11:05;;;;;;;15.13;4.40;;;;;;;;;;5044561;28;20290;-89
2023/07/13 03:13:31;;;;;;;10.83;4.50;;;;;;;;;;5054153;28;20275;-90
2023/07/13 03:15:57;;;;;;;13.20;4.73;;;;;;;;;;5054093;28;20230;-91
2023/07/13 03:18:26;;;;;;;9.50;4.77;;;;;;;;;;5053920;28;20184;-91
2023/07/13 03:20:52;;;;;;;12.73;4.80;;;;;;;;;;5053370;28;20183;-91
2023/07/13 03:23:18;;;;;;;12.33;5.13;;;;;;;;;;5054505;28;20198;-91
2023/07/13 03:25:47;;;;;;;12.57;4.70;;;;;;;;;;5054170;28;20188;-92
2023/07/13 03:28:13;;;;;;;13.83;4.93;;;;;;;;;;5038581;28;20239;-91
2023/07/13 03:30:40;;;;;;;13.17;4.93;;;;;;;;;;5037451;28;20183;-90
2023/07/13 03:33:08;;;;;;;14.87;4.83;;;;;;;;;;5037166;28;20219;-91
2023/07/13 03:35:35;;;;;;;10.50;4.50;;;;;;;;;;5045777;28;20204;-91
2023/07/13 03:38:01;;;;;;;18.23;5.20;;;;;;;;;;5042139;28;20184;-91
2023/07/13 03:40:28;;;;;;;11.63;4.77;;;;;;;;;;5044519;28;20271;-91
2023/07/13 03:42:54;;;;;;;15.40;4.83;;;;;;;;;;5031941;28;20189;-91
2023/07/13 03:45:21;;;;;;;12.77;4.80;;;;;;;;;;5002164;28;20219;-90
2023/07/13 03:47:47;;;;;;;11.83;4.53;;;;;;;;;;5027048;28;20279;-92
2023/07/13 03:50:15;;;;;;;15.07;5.33;;;;;;;;;;5037372;28;20180;-90
2023/07/13 03:52:41;;;;;;;13.70;4.80;;;;;;;;;;5029820;28;20210;-91
2023/07/13 03:55:07;;;;;;;13.20;5.57;;;;;;;;;;5017344;28;20177;-92
2023/07/13 03:57:34;;;;;;;13.63;4.93;;;;;;;;;;5002020;28;20188;-90
2023/07/13 04:00:00;;;;;;;13.83;5.50;;;;;;;;;;5033975;28;20268;-92
2023/07/13 04:02:26;;;;;;;17.53;5.70;;;;;;;;;;5043065;28;20275;-91
2023/07/13 04:04:54;;;;;;;10.67;5.57;;;;;;;;;;5030844;28;20189;-91
2023/07/13 04:07:20;;;;;;;17.37;5.70;;;;;;;;;;5017534;28;20250;-91
2023/07/13 04:09:46;;;;;;;12.17;5.73;;;;;;;;;;5017742;28;20189;-91
2023/07/13 04:12:12;;;;;;;12.83;5.47;;;;;;;;;;5031860;28;20274;-90
2023/07/13 04:14:38;;;;;;;17.07;5.87;;;;;;;;;;5037318;28;20175;-92
2023/07/13 04:17:05;;;;;;;11.20;5.20;;;;;;;;;;5036916;28;20176;-91
2023/07/13 04:19:31;;;;;;;13.67;5.43;;;;;;;;;;5037510;28;20172;-91
2023/07/13 04:21:57;;;;;;;20.63;6.40;;;;;;;;;;5036504;28;20188;-89
2023/07/13 04:24:23;;;;;;;13.13;5.47;;;;;;;;;;5029621;28;20180;-91
2023/07/13 04:26:49;;;;;;;14.53;6.13;;;;;;;;;;5024882;28;20216;-90
2023/07/13 04:29:16;;;;;;;14.17;6.13;;;;;;;;;;5033999;28;20228;-92
2023/07/13 04:31:42;;;;;;;13.80;6.67;;;;;;;;;;5031390;28;20246;-91
2023/07/13 04:34:08;;;;;;;19.13;7.03;;;;;;;;;;5023073;28;20191;-91
2023/07/13 04:36:37;;;;;;;12.93;6.40;;;;;;;;;;5031037;28;20176;-93
2023/07/13 04:39:03;;;;;;;20.70;7.30;;;;;;;;;;5019090;28;20267;-92
2023/07/13 04:41:29;;;;;;;16.43;7.17;;;;;;;;;;5035208;28;20206;-92
2023/07/13 04:43:55;;;;;;;20.90;7.70;;;;;;;;;;5016895;28;20185;-91
2023/07/13 04:46:24;;;;;;;18.97;7.17;;;;;;;;;;5033820;28;20181;-92
2023/07/13 04:48:53;;;;;;;17.87;6.20;;;;;;;;;;5033613;28;20176;-91
2023/07/13 04:51:19;;;;;;;13.30;6.27;;;;;;;;;;5042330;28;20206;-91
2023/07/13 04:53:45;;;;;;;15.00;7.23;;;;;;;;;;5020591;28;20214;-90
2023/07/13 04:56:11;;;;;;;15.97;6.90;;;;;;;;;;5036763;28;20184;-92
2023/07/13 04:58:37;;;;;;;17.60;6.20;;;;;;;;;;5037304;28;20246;-91
2023/07/13 05:01:07;;;;;;;16.77;6.93;;;;;;;;;;5029162;28;20180;-92
2023/07/13 05:03:33;;;;;;;17.23;7.20;;;;;;;;;;5051964;28;20172;-92
2023/07/13 05:06:00;;;;;;;18.60;7.17;;;;;;;;;;5052912;28;20191;-91
2023/07/13 05:08:26;;;;;;;18.37;7.43;;;;;;;;;;5050227;28;20190;-84
2023/07/13 05:10:53;;;;;;;13.37;6.60;;;;;;;;;;5051364;28;20188;-84
2023/07/13 05:13:19;;;;;;;17.67;7.47;;;;;;;;;;5047268;28;20204;-84
2023/07/13 05:15:46;;;;;;;18.80;7.83;;;;;;;;;;5044953;28;20208;-85
2023/07/13 05:18:12;;;;;;;18.40;7.10;;;;;;;;;;5044766;28;20179;-84
2023/07/13 05:20:38;;;;;;;16.60;7.53;;;;;;;;;;5047510;28;20183;-85
2023/07/13 05:23:04;;;;;;;20.87;8.30;;;;;;;;;;5051486;28;20195;-85
2023/07/13 05:25:30;;;;;;;21.13;7.33;;;;;;;;;;5050953;28;20199;-85
2023/07/13 05:27:59;;;;;;;17.37;8.23;;;;;;;;;;5015268;28;20258;-84
2023/07/13 05:30:25;;;;;;;17.00;7.73;;;;;;;;;;5047964;28;20179;-85
2023/07/13 05:32:51;;;;;;;24.07;7.93;;;;;;;;;;5045034;28;20208;-85
2023/07/13 05:35:17;;;;;;;24.50;8.33;;;;;;;;;;5044987;28;20172;-85
2023/07/13 05:37:45;;;;;;;20.27;8.40;;;;;;;;;;5020657;28;20279;-85
2023/07/13 05:40:11;;;;;;;21.17;7.77;;;;;;;;;;5049278;28;20184;-84
2023/07/13 05:42:37;;;;;;;17.30;8.40;;;;;;;;;;5056465;28;20187;-84
2023/07/13 05:45:04;;;;;;;23.67;9.70;;;;;;;;;;5011744;28;20215;-84
2023/07/13 05:47:30;;;;;;;23.60;9.43;;;;;;;;;;5054407;28;20192;-84
2023/07/13 05:49:56;;;;;;;23.03;10.33;;;;;;;;;;5038471;28;20222;-83
2023/07/13 05:52:22;;;;;;;27.37;10.80;;;;;;;;;;5044443;28;20211;-83
2023/07/13 05:54:48;;;;;;;23.93;11.30;;;;;;;;;;5045723;28;20215;-84
2023/07/13 05:57:14;;;;;;;27.90;11.63;;;;;;;;;;5041698;28;20180;-83
2023/07/13 05:59:40;;;;;;;29.50;12.47;;;;;;;;;;5022791;28;20187;-83
2023/07/13 06:02:09;;;;;;;25.13;11.73;;;;;;;;;;5018282;28;20188;-83
2023/07/13 06:04:35;;;;;;;25.30;12.17;;;;;;;;;;5054383;28;20191;-83
2023/07/13 06:07:01;;;;;;;29.53;13.07;;;;;;;;;;5055712;28;20176;-82
2023/07/13 06:09:27;;;;;;;25.87;12.67;;;;;;;;;;5022727;28;20192;-83
2023/07/13 06:11:53;;;;;;;27.07;12.80;;;;;;;;;;5018795;28;20219;-83
2023/07/13 06:14:19;;;;;;;21.10;11.13;;;;;;;;;;5019336;28;20177;-81
2023/07/13 06:16:45;;;;;;;23.30;11.17;;;;;;;;;;5016329;28;20199;-82
2023/07/13 06:19:11;;;;;;;21.10;11.03;;;;;;;;;;5013577;28;20283;-82
2023/07/13 06:21:37;;;;;;;26.70;12.57;;;;;;;;;;5008095;28;20279;-82
2023/07/13 06:24:03;;;;;;;22.23;11.90;;;;;;;;;;5038871;28;20275;-82
2023/07/13 06:26:29;;;;;;;24.63;12.23;;;;;;;;;;5022237;28;20188;-81
2023/07/13 06:28:55;;;;;;;30.37;11.97;;;;;;;;;;5037594;28;20235;-82
2023/07/13 06:31:22;;;;;;;23.20;13.37;;;;;;;;;;5022049;28;20563;-83
2023/07/13 06:33:48;;;;;;;21.27;12.03;;;;;;;;;;5038068;28;20177;-83
2023/07/13 06:36:14;;;;;;;23.93;12.60;;;;;;;;;;5021225;28;20180;-83
2023/07/13 06:38:40;;;;;;;21.97;13.33;;;;;;;;;;5007628;28;20191;-82
2023/07/13 06:41:07;;;;;;;23.50;13.83;;;;;;;;;;5029498;28;20191;-83
2023/07/13 06:43:33;;;;;;;25.40;14.10;;;;;;;;;;5022405;28;20215;-83
2023/07/13 06:45:59;;;;;;;24.60;14.07;;;;;;;;;;5016078;28;20211;-83
2023/07/13 06:48:25;;;;;;;27.40;14.10;;;;;;;;;;5023196;28;20187;-83
2023/07/13 06:50:52;;;;;;;27.80;13.50;;;;;;;;;;5021688;28;20184;-82
2023/07/13 06:53:19;;;;;;;27.33;13.50;;;;;;;;;;5034857;28;20216;-83
2023/07/13 06:55:45;;;;;;;25.93;13.33;;;;;;;;;;5017170;28;20250;-83
2023/07/13 06:58:11;;;;;;;23.87;13.40;;;;;;;;;;5031753;28;20179;-83
2023/07/13 07:00:40;;;;;;;21.07;12.63;;;;;;;;;;5017594;28;20173;-83
2023/07/13 07:03:06;;;;;;;26.37;13.80;;;;;;;;;;5017271;28;20184;-82
2023/07/13 07:05:32;;;;;;;20.37;12.70;;;;;;;;;;5033561;28;20187;-82
2023/07/13 07:07:58;;;;;;;25.50;13.07;;;;;;;;;;5038274;28;20184;-82
2023/07/13 07:10:24;;;;;;;21.83;13.53;;;;;;;;;;5037480;28;20194;-83
2023/07/13 07:12:50;;;;;;;22.53;14.37;;;;;;;;;;5034795;28;20295;-85
2023/07/13 07:15:18;;;;;;;22.47;12.43;;;;;;;;;;5032354;28;20184;-83
2023/07/13 07:17:45;;;;;;;24.70;13.33;;;;;;;;;;5020904;28;20186;-83
2023/07/13 07:20:11;;;;;;;27.93;14.73;;;;;;;;;;5033177;28;20185;-82
2023/07/13 07:22:39;;;;;;;27.67;13.37;;;;;;;;;;5031485;28;20180;-82
2023/07/13 07:25:06;;;;;;;22.43;13.37;;;;;;;;;;5036155;28;20192;-82
2023/07/13 07:27:32;;;;;;;26.30;14.40;;;;;;;;;;5038147;28;20227;-82
2023/07/13 07:29:58;;;;;;;25.43;13.83;;;;;;;;;;5057153;28;20183;-82
2023/07/13 07:32:24;;;;;;;27.90;13.73;;;;;;;;;;5054608;28;20223;-82
2023/07/13 07:34:50;;;;;;;22.07;13.30;;;;;;;;;;5053442;28;20187;-81
2023/07/13 07:37:17;;;;;;;22.40;13.40;;;;;;;;;;5021780;28;20180;-82
2023/07/13 07:39:44;;;;;;;27.97;14.27;;;;;;;;;;5053138;28;20187;-82
2023/07/13 07:42:12;;;;;;;22.60;13.40;;;;;;;;;;5039991;28;20221;-82
2023/07/13 07:44:38;;;;;;;24.83;12.90;;;;;;;;;;5039829;28;20236;-82
2023/07/13 07:47:04;;;;;;;18.03;13.17;;;;;;;;;;5037139;28;20184;-82
2023/07/13 07:49:30;;;;;;;21.60;13.13;;;;;;;;;;5020922;28;20283;-82
2023/07/13 07:51:56;;;;;;;22.97;12.80;;;;;;;;;;5045706;28;20298;-82
2023/07/13 07:54:22;;;;;;;23.97;12.53;;;;;;;;;;5055354;28;20248;-82
2023/07/13 07:56:48;;;;;;;27.23;12.97;;;;;;;;;;5029573;28;20286;-82
2023/07/13 07:59:14;;;;;;;21.70;13.83;;;;;;;;;;5048548;28;20234;-82
2023/07/13 08:01:40;;;;;;;20.67;12.80;;;;;;;;;;5054295;28;20289;-82
2023/07/13 08:04:06;;;;;;;21.13;12.43;;;;;;;;;;5055984;28;20202;-82
2023/07/13 08:06:33;;;;;;;24.00;13.17;;;;;;;;;;5035083;28;20195;-82
2023/07/13 08:09:00;;;;;;;19.50;12.10;;;;;;;;;;5055045;28;20198;-82
2023/07/13 08:11:26;;;;;;;23.33;13.13;;;;;;;;;;5054624;28;20214;-82
2023/07/13 08:13:52;;;;;;;25.07;13.60;;;;;;;;;;5035513;28;20196;-82
2023/07/13 08:16:18;;;;;;;21.70;12.40;;;;;;;;;;5033114;28;20207;-83
2023/07/13 08:18:44;;;;;;;24.50;13.17;;;;;;;;;;5039892;28;20186;-83
2023/07/13 08:21:10;;;;;;;22.43;13.27;;;;;;;;;;5037084;28;20274;-83
2023/07/13 08:23:36;;;;;;;25.50;13.40;;;;;;;;;;5039353;28;20400;-82
2023/07/13 08:26:04;;;;;;;21.90;12.67;;;;;;;;;;5056159;28;20175;-83
2023/07/13 08:28:30;;;;;;;19.13;12.60;;;;;;;;;;5039224;28;20227;-83
2023/07/13 08:31:00;;;;;;;22.33;12.40;;;;;;;;;;5039453;28;20183;-82
2023/07/13 08:33:26;;;;;;;23.83;12.80;;;;;;;;;;5056022;28;20226;-83
2023/07/13 08:35:52;;;;;;;18.47;11.90;;;;;;;;;;5039192;28;20184;-83
2023/07/13 08:38:19;;;;;;;18.83;11.87;;;;;;;;;;5055976;28;20206;-84
2023/07/13 08:40:49;;;;;;;15.50;11.63;;;;;;;;;;5056226;28;20249;-84
2023/07/13 08:43:21;;;;;;;15.10;11.13;;;;;;;;;;5055624;28;20199;-83
2023/07/13 08:45:49;;;;;;;23.37;12.00;;;;;;;;;;5055345;28;20187;-83
2023/07/13 08:48:24;;;;;;;20.10;10.93;;;;;;;;;;5054766;28;20187;-83
2023/07/13 08:51:05;;;;;;;20.50;11.00;;;;;;;;;;5051139;28;20183;-81
2023/07/13 08:53:35;;;;;;;15.23;9.90;;;;;;;;;;5052595;28;20222;-82
2023/07/13 08:56:02;;;;;;;19.50;10.20;;;;;;;;;;5047901;28;20197;-82
2023/07/13 08:58:29;;;;;;;17.93;10.90;;;;;;;;;;5048598;28;20222;-83
2023/07/13 09:00:55;;;;;;;21.57;10.43;;;;;;;;;;5046971;28;20176;-82
2023/07/13 09:03:26;;;;;;;18.93;11.00;;;;;;;;;;5044528;28;20194;-83
2023/07/13 09:05:58;;;;;;;19.13;10.87;;;;;;;;;;5056170;28;20210;-82
2023/07/13 09:08:36;;;;;;;18.30;10.63;;;;;;;;;;5056438;28;20179;-82
2023/07/13 09:11:20;;;;;;;15.83;10.63;;;;;;;;;;5055360;28;20190;-83
2023/07/13 09:13:59;;;;;;;15.23;10.00;;;;;;;;;;5055886;28;20187;-82
2023/07/13 09:16:25;;;;;;;12.27;8.70;;;;;;;;;;5055299;28;20179;-82
2023/07/13 09:18:53;;;;;;;11.50;7.37;;;;;;;;;;5056104;28;20214;-82
2023/07/13 09:21:22;;;;;;;11.80;7.43;;;;;;;;;;5056348;28;20270;-82
2023/07/13 09:23:49;;;;;;;13.60;7.90;;;;;;;;;;5056170;28;20183;-82
2023/07/13 09:26:19;;;;;;;12.10;9.10;;;;;;;;;;5056626;28;20171;-82
2023/07/13 09:28:46;;;;;;;13.80;8.60;;;;;;;;;;5042668;28;20234;-82
2023/07/13 09:31:25;;;;;;;13.50;8.40;;;;;;;;;;5035818;28;20206;-81
2023/07/13 09:33:51;;;;;;;14.10;8.10;;;;;;;;;;5042463;28;20255;-82
2023/07/13 09:36:36;;;;;;;13.83;8.07;;;;;;;;;;5043413;28;20210;-82
2023/07/13 09:39:08;;;;;;;12.83;7.37;;;;;;;;;;5052521;28;20187;-82
2023/07/13 09:41:53;;;;;;;17.97;9.13;;;;;;;;;;5065423;28;20211;-81
2023/07/13 09:44:30;;;;;;;12.47;8.47;;;;;;;;;;5037777;28;20188;-82
2023/07/13 09:46:56;;;;;;;12.90;7.20;;;;;;;;;;5056083;28;20235;-82
2023/07/13 09:49:26;;;;;;;10.47;6.53;;;;;;;;;;5055796;28;20183;-82
2023/07/13 09:52:14;;;;;;;10.73;4.80;;;;;;;;;;5056184;28;20207;-82
2023/07/13 09:54:40;;;;;;;7.13;3.70;;;;;;;;;;5055347;28;20184;-82
2023/07/13 09:57:13;;;;;;;7.70;4.60;;;;;;;;;;5052757;28;20203;-82
2023/07/13 09:59:58;;;;;;;6.20;3.50;;;;;;;;;;5036113;28;20176;-83
2023/07/13 10:02:30;;;;;;;8.13;4.40;;;;;;;;;;5051554;28;20179;-83
2023/07/13 10:04:58;;;;;;;7.23;4.03;;;;;;;;;;5056029;28;20179;-83
2023/07/13 10:07:24;;;;;;;7.57;5.13;;;;;;;;;;5056091;28;20178;-83
2023/07/13 10:09:54;;;;;;;9.10;5.83;;;;;;;;;;5055877;28;20183;-83
2023/07/13 10:12:20;;;;;;;12.67;6.33;;;;;;;;;;5055107;28;20211;-83
2023/07/13 10:14:46;;;;;;;11.57;6.40;;;;;;;;;;5056665;28;20183;-82
2023/07/13 10:17:14;;;;;;;10.70;6.20;;;;;;;;;;5042823;28;20182;-82
2023/07/13 10:19:42;;;;;;;10.57;5.90;;;;;;;;;;5058568;28;20179;-83
2023/07/13 10:22:20;;;;;;;10.97;7.13;;;;;;;;;;5059544;28;20188;-82
2023/07/13 10:24:47;;;;;;;11.43;5.83;;;;;;;;;;5059334;28;20271;-82
2023/07/13 10:27:17;;;;;;;12.27;6.23;;;;;;;;;;5042559;28;20234;-81
2023/07/13 10:29:46;;;;;;;10.33;5.30;;;;;;;;;;5058702;28;20250;-82
2023/07/13 10:32:13;;;;;;;11.43;6.10;;;;;;;;;;5058282;28;20215;-82
2023/07/13 10:34:40;;;;;;;12.37;6.40;;;;;;;;;;5059271;28;20305;-82
2023/07/13 10:37:09;;;;;;;12.17;6.40;;;;;;;;;;5058914;28;20259;-82
2023/07/13 10:39:36;;;;;;;12.40;6.80;;;;;;;;;;5059108;28;20197;-82
2023/07/13 10:42:07;;;;;;;11.83;5.87;;;;;;;;;;5041821;28;20198;-81
2023/07/13 10:44:34;;;;;;;13.33;5.50;;;;;;;;;;5038600;28;20175;-82
2023/07/13 10:47:02;;;;;;;9.77;5.50;;;;;;;;;;5039150;28;20176;-82
2023/07/13 10:49:30;;;;;;;8.23;4.65;;;;;;;;;;5038857;28;20183;-82
2023/07/13 10:51:56;;;;;;;12.15;5.07;;;;;;;;;;5022201;28;20211;-82
2023/07/13 10:54:31;;;;;;;13.93;4.90;;;;;;;;;;5038377;28;20176;-82
2023/07/13 10:57:16;;;;;;;13.23;5.32;;;;;;;;;;5038413;28;20225;-81
2023/07/13 10:59:45;;;;;;;16.52;7.35;;;;;;;;;;5047870;28;20179;-82
2023/07/13 11:02:27;;;;;;;14.07;6.97;;;;;;;;;;5048092;28;20191;-81
2023/07/13 11:04:53;;;;;;;9.32;7.15;;;;;;;;;;5038248;28;20226;-80
2023/07/13 11:07:19;;;;;;;14.27;7.15;;;;;;;;;;5038198;28;20183;-82
2023/07/13 11:09:49;;;;;;;7.85;5.63;;;;;;;;;;5053843;28;20183;-82
2023/07/13 11:12:17;;;;;;;9.30;5.30;;;;;;;;;;5058254;28;20215;-82
2023/07/13 11:14:56;;;;;;;8.23;4.70;;;;;;;;;;5058122;28;20183;-81
2023/07/13 11:17:28;;;;;;;8.68;4.90;;;;;;;;;;5058382;28;20175;-81
2023/07/13 11:19:54;;;;;;;10.68;4.82;;;;;;;;;;5058265;28;20171;-80
2023/07/13 11:22:25;;;;;;;7.80;4.30;;;;;;;;;;5058048;28;20176;-81
2023/07/13 11:24:51;;;;;;;9.18;4.80;;;;;;;;;;5058123;28;20182;-82
2023/07/13 11:27:37;;;;;;;8.07;4.45;;;;;;;;;;5057081;28;20188;-83
2023/07/13 11:30:27;;;;;;;8.18;4.60;;;;;;;;;;5057954;28;20183;-82
2023/07/13 11:33:07;;;;;;;7.63;4.30;;;;;;;;;;5044926;28;20207;-82
2023/07/13 11:35:35;;;;;;;10.80;4.70;;;;;;;;;;5057705;28;20182;-82
2023/07/13 11:38:02;;;;;;;10.25;4.68;;;;;;;;;;5054392;28;20183;-82
2023/07/13 11:40:30;;;;;;;7.55;4.20;;;;;;;;;;5049160;28;20190;-83
2023/07/13 11:43:00;;;;;;;9.98;4.40;;;;;;;;;;5041333;28;20191;-82
2023/07/13 11:45:27;;;;;;;7.40;3.60;;;;;;;;;;5026750;28;20186;-81
2023/07/13 11:47:54;;;;;;;9.50;3.90;;;;;;;;;;5042997;28;20195;-81
2023/07/13 11:50:22;;;;;;;5.38;3.40;;;;;;;;;;5016806;28;20206;-81
2023/07/13 11:52:49;;;;;;;8.50;3.67;;;;;;;;;;5043823;28;20204;-82
2023/07/13 11:55:17;;;;;;;5.88;3.67;;;;;;;;;;5051203;28;20180;-81
2023/07/13 11:57:52;;;;;;;7.78;3.35;;;;;;;;;;5032878;28;20199;-81
2023/07/13 12:00:22;;;;;;;4.28;2.80;;;;;;;;;;5050153;28;20301;-81
2023/07/13 12:02:49;;;;;;;5.80;2.65;;;;;;;;;;5050128;28;20191;-81
2023/07/13 12:05:17;;;;;;;4.10;2.92;;;;;;;;;;5057097;28;20223;-81
2023/07/13 12:07:44;;;;;;;3.97;2.50;;;;;;;;;;5057286;28;20270;-82
2023/07/13 12:10:10;;;;;;;6.93;3.22;;;;;;;;;;5057033;28;20229;-82
2023/07/13 12:12:40;;;;;;;5.88;3.05;;;;;;;;;;5057414;28;20207;-82
2023/07/13 12:15:06;;;;;;;6.05;3.17;;;;;;;;;;5057015;28;20230;-83
2023/07/13 12:17:34;;;;;;;4.65;3.20;;;;;;;;;;5056947;28;20175;-82
2023/07/13 12:20:01;;;;;;;8.27;3.05;;;;;;;;;;5057042;28;20171;-82
2023/07/13 12:22:28;;;;;;;5.13;3.00;;;;;;;;;;5057569;28;20171;-82
2023/07/13 12:24:55;;;;;;;6.00;3.08;;;;;;;;;;5057390;28;20175;-83
2023/07/13 12:27:23;;;;;;;6.25;2.85;;;;;;;;;;5040419;28;20205;-83
2023/07/13 12:29:59;;;;;;;5.07;3.22;;;;;;;;;;5052002;28;20226;-81
2023/07/13 12:32:26;;;;;;;6.28;3.13;;;;;;;;;;5033860;28;20230;-82
2023/07/13 12:34:56;;;;;;;6.05;3.20;;;;;;;;;;5050650;28;20198;-83
2023/07/13 12:37:22;;;;;;;6.30;3.13;;;;;;;;;;5052908;28;20179;-82
2023/07/13 12:39:49;;;;;;;7.88;3.08;;;;;;;;;;5052951;28;20176;-83
2023/07/13 12:42:27;;;;;;;6.20;3.35;;;;;;;;;;5053570;28;20171;-83
2023/07/13 12:44:54;;;;;;;7.15;4.25;;;;;;;;;;5052962;28;20179;-82
2023/07/13 12:47:23;;;;;;;6.57;3.53;;;;;;;;;;5053218;28;20187;-82
2023/07/13 12:49:51;;;;;;;6.40;3.60;;;;;;;;;;5049467;28;20177;-83
2023/07/13 12:52:18;;;;;;;6.53;3.25;;;;;;;;;;5040067;28;20207;-83
2023/07/13 12:54:55;;;;;;;6.13;3.20;;;;;;;;;;5053250;28;20176;-83
2023/07/13 12:57:22;;;;;;;6.28;2.85;;;;;;;;;;5052894;28;20179;-84
2023/07/13 12:59:52;;;;;;;5.63;3.08;;;;;;;;;;5053189;28;20191;-83
2023/07/13 13:02:25;;;;;;;5.93;3.17;;;;;;;;;;5052670;28;20191;-83
2023/07/13 13:04:51;;;;;;;4.13;2.78;;;;;;;;;;5052321;28;20180;-83
2023/07/13 13:07:19;;;;;;;5.80;3.22;;;;;;;;;;5053007;28;20226;-83
2023/07/13 13:09:47;;;;;;;4.10;2.38;;;;;;;;;;5052755;28;20180;-83
2023/07/13 13:12:13;;;;;;;4.95;2.85;;;;;;;;;;5035824;28;20208;-83
2023/07/13 13:14:39;;;;;;;5.55;2.67;;;;;;;;;;5052519;28;20180;-82
2023/07/13 13:17:14;;;;;;;4.25;2.65;;;;;;;;;;5052385;28;20190;-83
2023/07/13 13:19:40;;;;;;;5.43;2.80;;;;;;;;;;5052925;28;20171;-83
2023/07/13 13:22:08;;;;;;;4.55;2.80;;;;;;;;;;5036224;28;20186;-84
2023/07/13 13:24:35;;;;;;;4.35;3.00;;;;;;;;;;5053165;28;20183;-82
2023/07/13 13:27:01;;;;;;;5.85;2.90;;;;;;;;;;5052362;28;20191;-83
2023/07/13 13:29:28;;;;;;;9.82;3.35;;;;;;;;;;5051876;28;20310;-83
2023/07/13 13:31:54;;;;;;;5.78;2.70;;;;;;;;;;5051949;28;20210;-83
2023/07/13 13:34:24;;;;;;;4.63;3.00;;;;;;;;;;5052096;28;20179;-83
2023/07/13 13:36:51;;;;;;;7.63;3.20;;;;;;;;;;5052713;28;20180;-83
2023/07/13 13:39:25;;;;;;;5.05;2.95;;;;;;;;;;5052282;28;20180;-83
2023/07/13 13:41:52;;;;;;;6.82;2.90;;;;;;;;;;5052842;28;20179;-82
2023/07/13 13:44:19;;;;;;;6.38;3.20;;;;;;;;;;5052354;28;20194;-83
2023/07/13 13:46:55;;;;;;;6.85;3.47;;;;;;;;;;5049940;28;20191;-83
2023/07/13 13:49:25;;;;;;;7.88;3.45;;;;;;;;;;5053119;28;20230;-82
2023/07/13 13:51:54;;;;;;;7.03;3.25;;;;;;;;;;5056656;28;20218;-83
2023/07/13 13:54:21;;;;;;;6.15;3.20;;;;;;;;;;5056740;28;20171;-83
2023/07/13 13:56:48;;;;;;;6.20;3.10;;;;;;;;;;5056630;28;20262;-82
2023/07/13 13:59:17;;;;;;;6.47;2.80;;;;;;;;;;5055303;28;20169;-83
2023/07/13 14:01:44;;;;;;;7.20;3.20;;;;;;;;;;5046695;28;20195;-83
2023/07/13 14:04:21;;;;;;;5.30;3.50;;;;;;;;;;5044491;28;20189;-83
2023/07/13 14:06:50;;;;;;;5.10;3.03;;;;;;;;;;5053347;28;20191;-84
2023/07/13 14:09:17;;;;;;;7.15;2.88;;;;;;;;;;5036501;28;20306;-84
2023/07/13 14:11:44;;;;;;;5.57;2.50;;;;;;;;;;5019866;28;20235;-84
2023/07/13 14:14:16;;;;;;;4.50;2.40;;;;;;;;;;5045546;28;20172;-84
2023/07/13 14:16:42;;;;;;;10.70;2.50;;;;;;;;;;5055414;28;20326;-83
2023/07/13 14:19:11;;;;;;;4.40;2.53;;;;;;;;;;5045995;28;20180;-84
2023/07/13 14:21:37;;;;;;;4.43;2.45;;;;;;;;;;5036108;28;20176;-84
2023/07/13 14:24:03;;;;;;;4.10;2.38;;;;;;;;;;5035786;28;20184;-83
2023/07/13 14:26:32;;;;;;;6.95;2.60;;;;;;;;;;5019692;28;20182;-83
2023/07/13 14:28:58;;;;;;;3.22;2.50;;;;;;;;;;5035984;28;20311;-84
2023/07/13 14:31:25;;;;;;;4.57;2.55;;;;;;;;;;5019652;28;20211;-84
2023/07/13 14:33:58;;;;;;;4.30;2.55;;;;;;;;;;5019588;28;20200;-83
2023/07/13 14:36:28;;;;;;;3.47;2.47;;;;;;;;;;5020139;28;20237;-84
2023/07/13 14:38:55;;;;;;;5.80;2.83;;;;;;;;;;5035736;28;20177;-83